createdAt,value
2023-02-23T00:01:27.819Z,13.23
2023-02-23T00:03:59.675Z,12.35
2023-02-23T00:06:31.714Z,12.20
2023-02-23T00:09:01.536Z,10.98
2023-02-23T00:11:30.590Z,12.05
2023-02-23T00:13:58.355Z,11.63
2023-02-23T00:16:26.692Z,11.18
2023-02-23T00:19:00.465Z,11.00
2023-02-23T00:21:35.605Z,12.18
2023-02-23T00:24:12.026Z,11.00
2023-02-23T00:26:40.833Z,11.47
2023-02-23T00:29:16.703Z,11.52
2023-02-23T00:31:46.381Z,11.95
2023-02-23T00:34:21.352Z,11.45
2023-02-23T00:36:56.567Z,11.65
2023-02-23T00:39:29.613Z,11.43
2023-02-23T00:42:03.327Z,11.10
2023-02-23T00:44:34.190Z,10.80
2023-02-23T00:47:02.506Z,12.25
2023-02-23T00:49:30.448Z,10.43
2023-02-23T00:51:58.377Z,11.63
2023-02-23T00:54:30.026Z,11.70
2023-02-23T00:56:57.724Z,11.95
2023-02-23T00:59:28.449Z,10.90
2023-02-23T01:01:56.118Z,11.02
2023-02-23T01:04:24.143Z,10.95
2023-02-23T01:06:51.939Z,10.98
2023-02-23T01:09:28.633Z,11.27
2023-02-23T01:11:57.736Z,10.90
2023-02-23T01:14:25.463Z,10.32
2023-02-23T01:16:53.499Z,10.85
2023-02-23T01:19:21.593Z,11.38
2023-02-23T01:21:50.252Z,11.45
2023-02-23T01:24:18.756Z,11.05
2023-02-23T01:26:46.834Z,12.50
2023-02-23T01:29:18.056Z,12.38
2023-02-23T01:31:49.519Z,11.70
2023-02-23T01:34:21.898Z,12.40
2023-02-23T01:36:51.285Z,10.82
2023-02-23T01:39:20.998Z,11.48
2023-02-23T01:41:51.898Z,12.43
2023-02-23T01:44:19.816Z,10.45
2023-02-23T01:46:49.496Z,11.88
2023-02-23T01:49:25.838Z,10.25
2023-02-23T01:51:59.664Z,10.90
2023-02-23T01:54:38.952Z,11.70
2023-02-23T01:57:11.914Z,11.40
2023-02-23T01:59:43.330Z,12.68
2023-02-23T02:02:13.476Z,12.15
2023-02-23T02:04:46.585Z,12.05
2023-02-23T02:07:23.613Z,11.13
2023-02-23T02:10:15.627Z,12.07
2023-02-23T02:12:52.595Z,11.05
2023-02-23T02:15:26.138Z,11.45
2023-02-23T02:18:04.247Z,11.38
2023-02-23T02:20:56.925Z,12.23
2023-02-23T02:23:46.266Z,11.45
2023-02-23T02:26:46.624Z,12.43
2023-02-23T02:29:31.460Z,13.02
2023-02-23T02:32:30.357Z,12.90
2023-02-23T02:35:25.713Z,11.93
2023-02-23T02:38:03.790Z,13.80
2023-02-23T02:40:53.494Z,13.52
2023-02-23T02:44:05.667Z,12.85
2023-02-23T02:46:39.042Z,13.55
2023-02-23T02:49:52.718Z,12.15
2023-02-23T02:52:36.152Z,13.75
2023-02-23T02:55:12.441Z,14.15
2023-02-23T02:57:41.782Z,12.90
2023-02-23T03:00:37.780Z,14.80
2023-02-23T03:03:24.030Z,13.15
2023-02-23T03:06:13.699Z,13.23
2023-02-23T03:09:13.375Z,12.55
2023-02-23T03:12:25.652Z,12.90
2023-02-23T03:15:18.718Z,11.80
2023-02-23T03:18:07.620Z,11.70
2023-02-23T03:21:02.194Z,11.18
2023-02-23T03:24:10.333Z,12.02
2023-02-23T03:27:07.502Z,11.70
2023-02-23T03:30:17.841Z,12.15
2023-02-23T03:33:09.841Z,12.80
2023-02-23T03:36:09.821Z,13.15
2023-02-23T03:39:14.989Z,14.27
2023-02-23T03:42:05.762Z,14.80
2023-02-23T03:44:58.434Z,15.40
2023-02-23T03:47:51.008Z,14.82
2023-02-23T03:50:47.377Z,15.13
2023-02-23T03:53:37.067Z,15.38
2023-02-23T03:56:27.395Z,15.05
2023-02-23T03:59:20.015Z,14.90
2023-02-23T04:02:10.964Z,14.45
2023-02-23T04:04:58.976Z,14.93
2023-02-23T04:07:45.682Z,13.93
2023-02-23T04:10:32.377Z,13.85
2023-02-23T04:13:17.022Z,13.05
2023-02-23T04:15:48.347Z,14.18
2023-02-23T04:18:23.253Z,12.75
2023-02-23T04:20:51.225Z,14.57
2023-02-23T04:23:19.289Z,12.77
2023-02-23T04:25:47.960Z,13.68
2023-02-23T04:28:16.386Z,14.02
2023-02-23T04:30:44.593Z,13.82
2023-02-23T04:33:12.551Z,13.70
2023-02-23T04:35:42.059Z,14.05
2023-02-23T04:38:10.038Z,14.05
2023-02-23T04:40:37.820Z,14.45
2023-02-23T04:43:05.525Z,14.40
2023-02-23T04:45:34.161Z,14.90
2023-02-23T04:48:01.993Z,13.68
2023-02-23T04:50:32.487Z,14.00
2023-02-23T04:53:00.494Z,13.60
2023-02-23T04:55:28.781Z,14.75
2023-02-23T04:58:01.375Z,13.35
2023-02-23T05:00:29.866Z,13.80
2023-02-23T05:02:58.185Z,14.90
2023-02-23T05:05:26.449Z,14.32
2023-02-23T05:07:55.263Z,14.70
2023-02-23T05:10:24.142Z,13.65
2023-02-23T05:12:51.885Z,13.32
2023-02-23T05:15:19.648Z,13.77
2023-02-23T05:17:47.494Z,12.60
2023-02-23T05:20:16.267Z,13.10
2023-02-23T05:22:45.836Z,13.40
2023-02-23T05:25:13.719Z,15.40
2023-02-23T05:27:42.365Z,12.93
2023-02-23T05:30:11.086Z,14.68
2023-02-23T05:32:39.417Z,14.07
2023-02-23T05:35:07.848Z,16.20
2023-02-23T05:37:35.779Z,15.75
2023-02-23T05:40:04.251Z,16.33
2023-02-23T05:42:31.928Z,17.00
2023-02-23T05:44:59.971Z,18.55
2023-02-23T05:47:27.788Z,17.75
2023-02-23T05:49:55.513Z,20.80
2023-02-23T05:52:25.134Z,18.27
2023-02-23T05:54:52.895Z,18.45
2023-02-23T05:57:20.750Z,17.23
2023-02-23T05:59:48.828Z,16.77
2023-02-23T06:02:18.091Z,18.25
2023-02-23T06:04:47.314Z,18.42
2023-02-23T06:07:16.042Z,17.60
2023-02-23T06:09:44.654Z,16.55
2023-02-23T06:12:12.374Z,17.23
2023-02-23T06:14:41.635Z,17.58
2023-02-23T06:17:09.485Z,19.45
2023-02-23T06:19:38.513Z,18.45
2023-02-23T06:22:06.220Z,21.05
2023-02-23T06:24:34.694Z,20.60
2023-02-23T06:27:02.588Z,21.33
2023-02-23T06:29:30.614Z,20.48
2023-02-23T06:32:00.796Z,21.20
2023-02-23T06:34:29.358Z,19.33
2023-02-23T06:36:59.543Z,19.48
2023-02-23T06:39:27.473Z,19.88
2023-02-23T06:41:55.384Z,19.40
2023-02-23T06:44:23.699Z,20.10
2023-02-23T06:46:51.463Z,19.33
2023-02-23T06:49:19.382Z,17.63
2023-02-23T06:51:47.697Z,18.55
2023-02-23T06:54:16.488Z,19.25
2023-02-23T06:56:44.570Z,18.75
2023-02-23T06:59:12.528Z,18.25
2023-02-23T07:01:40.369Z,18.00
2023-02-23T07:04:08.510Z,18.05
2023-02-23T07:06:36.594Z,17.15
2023-02-23T07:09:06.288Z,18.98
2023-02-23T07:11:43.676Z,18.23
2023-02-23T07:14:15.361Z,20.65
2023-02-23T07:16:49.266Z,19.55
2023-02-23T07:19:17.189Z,19.92
2023-02-23T07:21:44.914Z,18.45
2023-02-23T07:24:13.765Z,21.17
2023-02-23T07:26:43.983Z,19.42
2023-02-23T07:29:13.364Z,19.60
2023-02-23T07:31:41.658Z,19.52
2023-02-23T07:34:10.354Z,19.48
2023-02-23T07:36:38.451Z,19.65
2023-02-23T07:39:06.678Z,20.45
2023-02-23T07:41:34.611Z,19.30
2023-02-23T07:44:02.386Z,22.65
2023-02-23T07:46:30.190Z,23.63
2023-02-23T07:48:58.024Z,23.38
2023-02-23T07:51:25.893Z,21.48
2023-02-23T07:53:54.531Z,20.77
2023-02-23T07:56:22.299Z,20.70
2023-02-23T07:58:50.178Z,19.58
2023-02-23T08:01:18.450Z,18.92
2023-02-23T08:03:49.824Z,20.48
2023-02-23T08:06:19.578Z,20.13
2023-02-23T08:08:47.608Z,19.92
2023-02-23T08:11:15.965Z,20.08
2023-02-23T08:13:44.070Z,20.08
2023-02-23T08:16:13.051Z,19.77
2023-02-23T08:18:40.896Z,20.67
2023-02-23T08:21:08.682Z,20.27
2023-02-23T08:23:37.975Z,20.13
2023-02-23T08:26:06.112Z,21.30
2023-02-23T08:28:34.044Z,20.67
2023-02-23T08:31:01.924Z,20.33
2023-02-23T08:33:32.265Z,20.17
2023-02-23T08:36:03.633Z,20.85
2023-02-23T08:38:31.354Z,28.25
2023-02-23T08:41:03.189Z,25.67
2023-02-23T08:43:31.695Z,23.92
2023-02-23T08:45:59.535Z,23.73
2023-02-23T08:48:27.465Z,24.48
2023-02-23T08:50:59.271Z,28.10
2023-02-23T08:53:30.026Z,26.27
2023-02-23T08:56:01.230Z,25.73
2023-02-23T08:58:30.931Z,24.13
2023-02-23T09:00:59.699Z,21.40
2023-02-23T09:03:30.901Z,23.17
2023-02-23T09:06:05.544Z,21.60
2023-02-23T09:08:35.129Z,18.40
2023-02-23T09:11:04.376Z,16.85
2023-02-23T09:13:32.969Z,15.30
2023-02-23T09:16:00.958Z,15.40
2023-02-23T09:18:29.659Z,15.20
2023-02-23T09:20:57.686Z,14.20
2023-02-23T09:23:29.810Z,17.30
2023-02-23T09:25:58.466Z,17.17
2023-02-23T09:28:27.297Z,15.75
2023-02-23T09:30:55.050Z,15.20
2023-02-23T09:33:22.835Z,14.88
2023-02-23T09:35:53.149Z,14.98
2023-02-23T09:38:20.874Z,14.15
2023-02-23T09:40:50.093Z,15.07
2023-02-23T09:43:42.806Z,13.40
2023-02-23T09:46:30.966Z,13.57
2023-02-23T09:49:03.246Z,12.93
2023-02-23T09:51:39.058Z,13.50
2023-02-23T09:54:11.223Z,13.00
2023-02-23T09:56:44.995Z,14.63
2023-02-23T09:59:16.729Z,15.27
2023-02-23T10:02:19.526Z,15.73
2023-02-23T10:04:54.236Z,15.75
2023-02-23T10:07:39.156Z,15.95
2023-02-23T10:10:28.287Z,15.63
2023-02-23T10:13:18.627Z,16.42
2023-02-23T10:16:27.904Z,17.48
2023-02-23T10:19:01.772Z,15.93
2023-02-23T10:21:42.327Z,15.27
2023-02-23T10:24:21.531Z,14.73
2023-02-23T10:26:49.815Z,14.43
2023-02-23T10:29:32.861Z,15.77
2023-02-23T10:32:22.465Z,16.73
2023-02-23T10:34:56.986Z,17.08
2023-02-23T10:37:25.956Z,15.68
2023-02-23T10:39:54.025Z,18.10
2023-02-23T10:42:32.363Z,17.75
2023-02-23T10:45:01.053Z,15.85
2023-02-23T10:47:33.298Z,14.15
2023-02-23T10:50:04.626Z,12.88
2023-02-23T10:52:42.307Z,11.75
2023-02-23T10:55:27.511Z,11.98
2023-02-23T10:58:20.382Z,11.40
2023-02-23T11:00:54.315Z,10.27
2023-02-23T11:03:42.513Z,10.90
2023-02-23T11:06:39.728Z,10.88
2023-02-23T11:09:46.733Z,11.02
2023-02-23T11:12:22.466Z,10.57
2023-02-23T11:14:52.977Z,10.35
2023-02-23T11:17:24.304Z,9.65
2023-02-23T11:20:06.469Z,9.10
2023-02-23T11:22:37.538Z,9.80
2023-02-23T11:25:17.779Z,9.82
2023-02-23T11:27:51.638Z,10.18
2023-02-23T11:30:25.608Z,11.93
2023-02-23T11:32:58.342Z,11.35
2023-02-23T11:35:30.495Z,12.93
2023-02-23T11:37:58.707Z,16.80
2023-02-23T11:40:35.070Z,14.68
2023-02-23T11:43:07.446Z,6.93
2023-02-23T11:45:45.974Z,8.85
2023-02-23T11:48:49.328Z,16.60
2023-02-23T11:51:31.061Z,14.02
2023-02-23T11:54:00.213Z,14.10
2023-02-23T11:56:31.508Z,13.18
2023-02-23T11:59:08.473Z,14.48
2023-02-23T12:01:45.416Z,14.95
2023-02-23T12:04:37.466Z,14.43
2023-02-23T12:07:35.129Z,12.38
2023-02-23T12:10:39.821Z,18.55
2023-02-23T12:13:25.040Z,17.42
2023-02-23T12:16:09.029Z,14.32
2023-02-23T12:18:39.871Z,12.30
2023-02-23T12:21:17.319Z,11.20
2023-02-23T12:23:50.024Z,10.73
2023-02-23T12:26:25.003Z,11.68
2023-02-23T12:29:13.892Z,10.85
2023-02-23T12:31:44.786Z,11.25
2023-02-23T12:34:23.710Z,12.82
2023-02-23T12:37:07.816Z,13.52
2023-02-23T12:39:51.686Z,14.10
2023-02-23T12:42:39.422Z,11.82
2023-02-23T12:47:54.241Z,13.63
2023-02-23T12:50:57.507Z,15.00
2023-02-23T12:53:45.068Z,13.70
2023-02-23T12:56:22.238Z,13.48
2023-02-23T13:01:34.937Z,13.48
2023-02-23T13:04:34.213Z,14.10
2023-02-23T13:07:27.159Z,14.45
2023-02-23T13:10:22.913Z,14.52
2023-02-23T13:13:18.790Z,13.85
2023-02-23T13:15:52.473Z,13.13
2023-02-23T13:18:29.069Z,12.43
2023-02-23T13:21:35.474Z,13.45
2023-02-23T13:24:13.259Z,14.30
2023-02-23T13:26:54.650Z,13.90
2023-02-23T13:29:28.750Z,12.68
2023-02-23T13:32:03.169Z,12.30
2023-02-23T13:34:44.481Z,12.25
2023-02-23T13:37:17.500Z,11.88
2023-02-23T13:39:48.397Z,12.30
2023-02-23T13:42:41.111Z,12.57
2023-02-23T13:45:39.879Z,14.35
2023-02-23T13:48:26.016Z,15.80
2023-02-23T13:51:07.369Z,16.08
2023-02-23T13:54:00.714Z,15.55
2023-02-23T13:56:41.344Z,14.57
2023-02-23T13:59:17.499Z,13.23
2023-02-23T14:01:49.470Z,11.23
2023-02-23T14:04:24.576Z,12.90
2023-02-23T14:07:22.308Z,14.48
2023-02-23T14:10:00.902Z,16.10
2023-02-23T14:12:42.001Z,16.42
2023-02-23T14:15:28.903Z,15.55
2023-02-23T14:17:59.973Z,17.07
2023-02-23T14:20:44.549Z,17.77
2023-02-23T14:23:18.470Z,18.70
2023-02-23T14:25:57.321Z,19.02
2023-02-23T14:28:31.376Z,18.10
2023-02-23T14:31:20.873Z,18.27
2023-02-23T14:33:59.756Z,15.57
2023-02-23T14:36:33.988Z,14.88
2023-02-23T14:39:08.164Z,16.95
2023-02-23T14:41:46.716Z,15.65
2023-02-23T14:47:16.934Z,16.17
2023-02-23T14:49:50.445Z,15.68
2023-02-23T14:52:24.843Z,14.15
2023-02-23T14:55:13.662Z,12.20
2023-02-23T14:57:43.724Z,10.95
2023-02-23T15:00:32.669Z,9.88
2023-02-23T15:03:03.079Z,10.32
2023-02-23T15:05:43.563Z,10.30
2023-02-23T15:08:19.192Z,12.30
2023-02-23T15:10:59.752Z,12.10
2023-02-23T15:13:40.350Z,21.63
2023-02-23T15:16:15.355Z,19.63
2023-02-23T15:18:45.061Z,16.23
2023-02-23T15:21:18.537Z,15.52
2023-02-23T15:23:58.093Z,15.65
2023-02-23T15:26:32.099Z,12.45
2023-02-23T15:29:07.082Z,11.73
2023-02-23T15:31:35.097Z,11.32
2023-02-23T15:34:03.409Z,9.48
2023-02-23T15:36:35.055Z,9.70
2023-02-23T15:39:07.150Z,9.63
2023-02-23T15:41:38.562Z,13.82
2023-02-23T15:44:12.418Z,17.80
2023-02-23T15:46:42.103Z,16.80
2023-02-23T15:49:19.573Z,17.65
2023-02-23T15:51:57.842Z,24.63
2023-02-23T15:57:03.786Z,18.83
2023-02-23T15:59:38.352Z,17.15
2023-02-23T16:02:20.126Z,14.20
2023-02-23T16:04:53.962Z,14.73
2023-02-23T16:07:28.422Z,18.15
2023-02-23T16:10:21.302Z,21.58
2023-02-23T16:12:52.254Z,16.75
2023-02-23T16:15:23.862Z,14.00
2023-02-23T16:17:59.853Z,12.80
2023-02-23T16:20:41.617Z,12.32
2023-02-23T16:23:34.134Z,11.52
2023-02-23T16:26:13.044Z,9.93
2023-02-23T16:28:45.238Z,10.55
2023-02-23T16:31:22.179Z,10.63
2023-02-23T16:33:58.794Z,9.25
2023-02-23T16:36:40.407Z,10.80
2023-02-23T16:39:12.240Z,11.88
2023-02-23T16:41:40.421Z,16.83
2023-02-23T16:44:14.473Z,16.17
2023-02-23T16:46:56.051Z,17.77
2023-02-23T16:49:23.977Z,29.30
2023-02-23T16:51:52.868Z,25.10
2023-02-23T16:54:20.847Z,21.75
2023-02-23T16:56:49.893Z,15.43
2023-02-23T16:59:18.596Z,12.82
2023-02-23T17:01:50.470Z,9.32
2023-02-23T17:04:20.490Z,8.45
2023-02-23T17:06:52.955Z,7.47
2023-02-23T17:09:21.747Z,7.00
2023-02-23T17:11:49.881Z,6.32
2023-02-23T17:14:28.325Z,6.47
2023-02-23T17:16:57.360Z,6.38
2023-02-23T17:19:26.032Z,6.50
2023-02-23T17:21:53.954Z,6.80
2023-02-23T17:24:26.078Z,5.97
2023-02-23T17:26:55.591Z,7.40
2023-02-23T17:29:28.447Z,7.18
2023-02-23T17:32:00.234Z,7.72
2023-02-23T17:34:29.887Z,7.10
2023-02-23T17:36:57.997Z,7.25
2023-02-23T17:39:28.331Z,7.32
2023-02-23T17:41:56.182Z,5.90
2023-02-23T17:44:24.120Z,5.90
2023-02-23T17:46:52.002Z,7.70
2023-02-23T17:49:21.192Z,7.35
2023-02-23T17:51:53.322Z,7.03
2023-02-23T17:54:21.104Z,6.55
2023-02-23T17:56:49.001Z,6.20
2023-02-23T17:59:16.765Z,6.20
2023-02-23T18:01:48.393Z,5.63
2023-02-23T18:04:16.475Z,5.65
2023-02-23T18:06:45.666Z,6.35
2023-02-23T18:09:19.576Z,5.82
2023-02-23T18:11:47.540Z,6.68
2023-02-23T18:14:16.844Z,6.13
2023-02-23T18:16:46.468Z,5.88
2023-02-23T18:19:15.397Z,6.88
2023-02-23T18:21:44.187Z,6.32
2023-02-23T18:24:13.998Z,7.32
2023-02-23T18:26:42.354Z,7.75
2023-02-23T18:29:10.113Z,6.40
2023-02-23T18:31:38.062Z,6.50
2023-02-23T18:34:08.108Z,7.18
2023-02-23T18:36:38.165Z,6.80
2023-02-23T18:39:07.827Z,6.30
2023-02-23T18:41:36.512Z,6.80
2023-02-23T18:44:08.218Z,6.35
2023-02-23T18:46:36.285Z,7.43
2023-02-23T18:49:06.237Z,6.88
2023-02-23T18:51:34.201Z,7.55
2023-02-23T18:54:03.496Z,6.93
2023-02-23T18:56:31.792Z,6.55
2023-02-23T18:59:01.800Z,7.32
2023-02-23T19:01:33.644Z,8.32
2023-02-23T19:04:03.211Z,9.90
2023-02-23T19:06:32.825Z,9.07
2023-02-23T19:09:03.817Z,9.07
2023-02-23T19:11:34.405Z,8.75
2023-02-23T19:14:08.118Z,8.13
2023-02-23T19:16:36.864Z,10.10
2023-02-23T19:19:07.206Z,10.48
2023-02-23T19:21:36.328Z,9.98
2023-02-23T19:24:05.649Z,9.98
2023-02-23T19:26:40.983Z,10.57
2023-02-23T19:29:08.906Z,9.70
2023-02-23T19:31:37.456Z,9.98
2023-02-23T19:34:09.001Z,10.70
2023-02-23T19:36:37.339Z,10.43
2023-02-23T19:39:11.848Z,11.15
2023-02-23T19:41:40.720Z,12.15
2023-02-23T19:44:10.116Z,11.98
2023-02-23T19:46:40.165Z,12.05
2023-02-23T19:49:08.313Z,10.05
2023-02-23T19:51:36.483Z,8.40
2023-02-23T19:54:05.010Z,8.60
2023-02-23T19:56:33.084Z,7.95
2023-02-23T19:59:02.501Z,8.55
2023-02-23T20:01:30.691Z,7.88
2023-02-23T20:04:04.606Z,8.20
2023-02-23T20:06:38.546Z,8.50
2023-02-23T20:09:06.572Z,7.95
2023-02-23T20:11:35.588Z,9.07
2023-02-23T20:14:05.495Z,10.13
2023-02-23T20:16:36.452Z,8.43
2023-02-23T20:19:06.642Z,8.55
2023-02-23T20:21:34.884Z,7.63
2023-02-23T20:24:03.877Z,8.15
2023-02-23T20:26:37.405Z,7.35
2023-02-23T20:29:11.353Z,7.80
2023-02-23T20:31:42.184Z,8.20
2023-02-23T20:34:11.449Z,8.15
2023-02-23T20:36:40.230Z,7.72
2023-02-23T20:39:09.904Z,9.05
2023-02-23T20:41:38.628Z,8.23
2023-02-23T20:44:06.418Z,8.85
2023-02-23T20:46:34.197Z,10.00
2023-02-23T20:49:03.812Z,9.95
2023-02-23T20:51:31.588Z,12.10
2023-02-23T20:54:00.290Z,10.85
2023-02-23T20:56:32.477Z,10.68
2023-02-23T20:59:03.286Z,10.70
2023-02-23T21:01:34.708Z,9.60
2023-02-23T21:04:04.060Z,10.18
2023-02-23T21:06:32.841Z,10.70
2023-02-23T21:09:07.929Z,9.45
2023-02-23T21:11:38.706Z,9.30
2023-02-23T21:14:08.509Z,9.88
2023-02-23T21:16:36.378Z,8.95
2023-02-23T21:19:04.427Z,8.65
2023-02-23T21:21:38.907Z,8.93
2023-02-23T21:24:07.622Z,9.18
2023-02-23T21:26:35.745Z,9.02
2023-02-23T21:29:04.625Z,9.10
2023-02-23T21:31:32.437Z,8.15
2023-02-23T21:34:00.489Z,8.13
2023-02-23T21:36:29.306Z,8.32
2023-02-23T21:38:57.007Z,8.30
2023-02-23T21:41:25.324Z,8.60
2023-02-23T21:43:54.062Z,7.88
2023-02-23T21:46:23.410Z,7.50
2023-02-23T21:48:51.549Z,7.22
2023-02-23T21:51:20.217Z,7.75
2023-02-23T21:53:48.308Z,8.23
2023-02-23T21:56:22.482Z,8.15
2023-02-23T21:58:53.260Z,8.40
2023-02-23T22:01:24.524Z,8.00
2023-02-23T22:03:55.387Z,7.95
2023-02-23T22:06:27.863Z,8.45
2023-02-23T22:09:01.235Z,7.57
2023-02-23T22:11:30.530Z,8.02
2023-02-23T22:13:59.478Z,7.90
2023-02-23T22:16:33.873Z,7.35
2023-02-23T22:19:04.552Z,7.65
2023-02-23T22:21:35.672Z,7.60
2023-02-23T22:24:06.716Z,8.10
2023-02-23T22:26:37.750Z,8.68
2023-02-23T22:29:06.998Z,8.27
2023-02-23T22:31:34.933Z,8.13
2023-02-23T22:34:06.374Z,7.95
2023-02-23T22:36:35.319Z,8.52
2023-02-23T22:39:10.519Z,7.90
2023-02-23T22:41:42.582Z,9.48
2023-02-23T22:44:15.206Z,10.63
2023-02-23T22:46:50.689Z,8.68
2023-02-23T22:49:20.341Z,8.77
2023-02-23T22:51:48.229Z,8.52
2023-02-23T22:54:17.547Z,8.75
2023-02-23T22:56:47.089Z,10.82
2023-02-23T22:59:18.677Z,12.05
2023-02-23T23:01:47.765Z,12.63
2023-02-23T23:04:16.243Z,13.60
2023-02-23T23:06:44.881Z,12.50
2023-02-23T23:09:13.063Z,12.40
2023-02-23T23:11:44.607Z,10.95
2023-02-23T23:14:12.890Z,10.38
2023-02-23T23:16:52.253Z,8.95
2023-02-23T23:19:24.632Z,8.50
2023-02-23T23:22:00.650Z,8.27
2023-02-23T23:24:28.675Z,8.18
2023-02-23T23:27:00.452Z,8.00
2023-02-23T23:29:32.776Z,7.95
2023-02-23T23:32:02.802Z,8.02
2023-02-23T23:34:35.357Z,7.90
2023-02-23T23:37:04.499Z,8.70
2023-02-23T23:39:32.345Z,7.55
2023-02-23T23:42:02.971Z,8.02
2023-02-23T23:44:36.531Z,7.90
2023-02-23T23:47:07.113Z,7.82
2023-02-23T23:49:40.372Z,8.35
2023-02-23T23:52:09.405Z,7.15
2023-02-23T23:54:39.392Z,7.90
2023-02-23T23:57:07.898Z,8.07
2023-02-23T23:59:35.944Z,7.82
